sensor_id;sensor_type;location;lat;lon;timestamp;temperature;humidity
21387;DHT22;10854;45.922;6.716;2022-09-17T00:01:43;11.00;99.90
21387;DHT22;10854;45.922;6.716;2022-09-17T00:04:11;10.90;99.90
21387;DHT22;10854;45.922;6.716;2022-09-17T00:06:40;10.80;99.90
21387;DHT22;10854;45.922;6.716;2022-09-17T00:09:08;10.70;99.90
21387;DHT22;10854;45.922;6.716;2022-09-17T00:11:39;10.60;99.90
21387;DHT22;10854;45.922;6.716;2022-09-17T00:14:13;10.60;99.90
21387;DHT22;10854;45.922;6.716;2022-09-17T00:16:46;10.60;99.90
21387;DHT22;10854;45.922;6.716;2022-09-17T00:19:20;10.60;99.90
21387;DHT22;10854;45.922;6.716;2022-09-17T00:21:50;10.60;99.90
21387;DHT22;10854;45.922;6.716;2022-09-17T00:24:19;10.60;99.90
21387;DHT22;10854;45.922;6.716;2022-09-17T00:26:48;10.60;99.90
21387;DHT22;10854;45.922;6.716;2022-09-17T00:29:17;10.60;99.90
21387;DHT22;10854;45.922;6.716;2022-09-17T00:31:48;10.60;99.90
21387;DHT22;10854;45.922;6.716;2022-09-17T00:34:19;10.70;99.90
21387;DHT22;10854;45.922;6.716;2022-09-17T00:36:47;10.70;99.90
21387;DHT22;10854;45.922;6.716;2022-09-17T00:39:16;10.70;99.90
21387;DHT22;10854;45.922;6.716;2022-09-17T00:41:45;10.70;99.90
21387;DHT22;10854;45.922;6.716;2022-09-17T00:44:48;10.80;99.90
21387;DHT22;10854;45.922;6.716;2022-09-17T00:47:26;10.80;99.90
21387;DHT22;10854;45.922;6.716;2022-09-17T00:50:15;10.70;99.90
21387;DHT22;10854;45.922;6.716;2022-09-17T00:52:50;10.80;99.90
21387;DHT22;10854;45.922;6.716;2022-09-17T00:55:47;10.80;99.90
21387;DHT22;10854;45.922;6.716;2022-09-17T00:58:20;10.80;99.90
21387;DHT22;10854;45.922;6.716;2022-09-17T01:00:49;10.80;99.50
21387;DHT22;10854;45.922;6.716;2022-09-17T01:03:18;10.80;98.90
21387;DHT22;10854;45.922;6.716;2022-09-17T01:14:25;10.80;98.90
21387;DHT22;10854;45.922;6.716;2022-09-17T01:28:52;10.60;99.90
21387;DHT22;10854;45.922;6.716;2022-09-17T01:34:33;10.60;99.90
21387;DHT22;10854;45.922;6.716;2022-09-17T01:37:22;10.50;99.90
21387;DHT22;10854;45.922;6.716;2022-09-17T01:40:25;10.60;99.90
21387;DHT22;10854;45.922;6.716;2022-09-17T01:43:02;10.60;99.90
21387;DHT22;10854;45.922;6.716;2022-09-17T01:45:40;10.60;99.90
21387;DHT22;10854;45.922;6.716;2022-09-17T01:50:59;10.60;99.90
21387;DHT22;10854;45.922;6.716;2022-09-17T01:53:54;10.60;99.90
21387;DHT22;10854;45.922;6.716;2022-09-17T01:56:32;10.60;99.90
21387;DHT22;10854;45.922;6.716;2022-09-17T02:01:46;10.60;99.90
21387;DHT22;10854;45.922;6.716;2022-09-17T02:04:32;10.60;99.90
21387;DHT22;10854;45.922;6.716;2022-09-17T02:07:05;10.60;99.90
21387;DHT22;10854;45.922;6.716;2022-09-17T02:10:07;10.60;99.90
21387;DHT22;10854;45.922;6.716;2022-09-17T02:12:43;10.50;99.90
21387;DHT22;10854;45.922;6.716;2022-09-17T02:15:20;10.50;99.90
21387;DHT22;10854;45.922;6.716;2022-09-17T02:18:01;10.50;99.90
21387;DHT22;10854;45.922;6.716;2022-09-17T02:21:00;10.60;99.90
21387;DHT22;10854;45.922;6.716;2022-09-17T02:23:39;10.50;99.90
21387;DHT22;10854;45.922;6.716;2022-09-17T02:26:13;10.50;99.90
21387;DHT22;10854;45.922;6.716;2022-09-17T02:28:50;10.50;99.90
21387;DHT22;10854;45.922;6.716;2022-09-17T02:31:20;10.60;99.90
21387;DHT22;10854;45.922;6.716;2022-09-17T02:33:53;10.60;99.90
21387;DHT22;10854;45.922;6.716;2022-09-17T02:36:24;10.70;99.90
21387;DHT22;10854;45.922;6.716;2022-09-17T02:38:58;10.70;99.90
21387;DHT22;10854;45.922;6.716;2022-09-17T02:50:10;10.70;99.90
21387;DHT22;10854;45.922;6.716;2022-09-17T02:56:06;10.60;99.90
21387;DHT22;10854;45.922;6.716;2022-09-17T03:01:35;10.60;99.90
21387;DHT22;10854;45.922;6.716;2022-09-17T03:04:09;10.50;99.90
21387;DHT22;10854;45.922;6.716;2022-09-17T03:06:39;10.50;99.90
21387;DHT22;10854;45.922;6.716;2022-09-17T03:09:08;10.40;99.90
21387;DHT22;10854;45.922;6.716;2022-09-17T03:11:36;10.50;99.90
21387;DHT22;10854;45.922;6.716;2022-09-17T03:14:05;10.40;99.90
21387;DHT22;10854;45.922;6.716;2022-09-17T03:16:35;10.40;99.90
21387;DHT22;10854;45.922;6.716;2022-09-17T03:19:03;10.30;99.90
21387;DHT22;10854;45.922;6.716;2022-09-17T03:21:32;10.30;99.90
21387;DHT22;10854;45.922;6.716;2022-09-17T03:24:00;10.30;99.90
21387;DHT22;10854;45.922;6.716;2022-09-17T03:26:30;10.20;99.90
21387;DHT22;10854;45.922;6.716;2022-09-17T03:28:59;10.20;99.90
21387;DHT22;10854;45.922;6.716;2022-09-17T03:31:28;10.10;99.90
21387;DHT22;10854;45.922;6.716;2022-09-17T03:33:57;10.00;99.90
21387;DHT22;10854;45.922;6.716;2022-09-17T03:36:25;9.90;99.90
21387;DHT22;10854;45.922;6.716;2022-09-17T03:38:56;9.90;99.90
21387;DHT22;10854;45.922;6.716;2022-09-17T03:41:25;9.80;99.90
21387;DHT22;10854;45.922;6.716;2022-09-17T03:43:54;9.80;99.90
21387;DHT22;10854;45.922;6.716;2022-09-17T03:46:23;9.70;99.90
21387;DHT22;10854;45.922;6.716;2022-09-17T03:48:52;9.70;99.90
21387;DHT22;10854;45.922;6.716;2022-09-17T03:51:21;9.60;99.90
21387;DHT22;10854;45.922;6.716;2022-09-17T03:53:49;9.60;99.90
21387;DHT22;10854;45.922;6.716;2022-09-17T03:56:18;9.50;99.90
21387;DHT22;10854;45.922;6.716;2022-09-17T03:58:47;9.50;99.90
21387;DHT22;10854;45.922;6.716;2022-09-17T04:01:15;9.50;99.90
21387;DHT22;10854;45.922;6.716;2022-09-17T04:03:44;9.50;99.90
21387;DHT22;10854;45.922;6.716;2022-09-17T04:06:13;9.50;99.90
21387;DHT22;10854;45.922;6.716;2022-09-17T04:08:41;9.40;99.90
21387;DHT22;10854;45.922;6.716;2022-09-17T04:11:11;9.40;99.90
21387;DHT22;10854;45.922;6.716;2022-09-17T04:13:40;9.40;99.90
21387;DHT22;10854;45.922;6.716;2022-09-17T04:16:08;9.30;99.90
21387;DHT22;10854;45.922;6.716;2022-09-17T04:18:37;9.30;99.90
21387;DHT22;10854;45.922;6.716;2022-09-17T04:21:07;9.30;99.90
21387;DHT22;10854;45.922;6.716;2022-09-17T04:23:36;9.30;99.90
21387;DHT22;10854;45.922;6.716;2022-09-17T04:26:06;9.40;99.90
21387;DHT22;10854;45.922;6.716;2022-09-17T04:28:36;9.40;99.90
21387;DHT22;10854;45.922;6.716;2022-09-17T04:31:05;9.40;99.90
21387;DHT22;10854;45.922;6.716;2022-09-17T04:33:34;9.40;99.90
21387;DHT22;10854;45.922;6.716;2022-09-17T04:36:04;9.40;99.90
21387;DHT22;10854;45.922;6.716;2022-09-17T04:38:34;9.40;99.90
21387;DHT22;10854;45.922;6.716;2022-09-17T04:41:06;9.40;99.90
21387;DHT22;10854;45.922;6.716;2022-09-17T04:43:35;9.40;99.90
21387;DHT22;10854;45.922;6.716;2022-09-17T04:46:03;9.40;99.90
21387;DHT22;10854;45.922;6.716;2022-09-17T04:48:33;9.30;99.90
21387;DHT22;10854;45.922;6.716;2022-09-17T04:51:03;9.30;99.90
21387;DHT22;10854;45.922;6.716;2022-09-17T04:53:32;9.30;99.90
21387;DHT22;10854;45.922;6.716;2022-09-17T04:56:01;9.30;99.90
21387;DHT22;10854;45.922;6.716;2022-09-17T04:58:29;9.20;99.90
21387;DHT22;10854;45.922;6.716;2022-09-17T05:00:59;9.20;99.90
21387;DHT22;10854;45.922;6.716;2022-09-17T05:03:28;9.10;99.90
21387;DHT22;10854;45.922;6.716;2022-09-17T05:05:56;9.10;99.90
21387;DHT22;10854;45.922;6.716;2022-09-17T05:08:25;9.00;99.90
21387;DHT22;10854;45.922;6.716;2022-09-17T05:10:54;9.00;99.90
21387;DHT22;10854;45.922;6.716;2022-09-17T05:13:23;9.00;99.90
21387;DHT22;10854;45.922;6.716;2022-09-17T05:15:53;8.90;99.90
21387;DHT22;10854;45.922;6.716;2022-09-17T05:18:23;8.90;99.90
21387;DHT22;10854;45.922;6.716;2022-09-17T05:20:53;8.90;99.90
21387;DHT22;10854;45.922;6.716;2022-09-17T05:23:23;8.80;99.90
21387;DHT22;10854;45.922;6.716;2022-09-17T05:25:51;8.70;99.90
21387;DHT22;10854;45.922;6.716;2022-09-17T05:28:20;8.60;99.90
21387;DHT22;10854;45.922;6.716;2022-09-17T05:30:48;8.60;99.90
21387;DHT22;10854;45.922;6.716;2022-09-17T05:33:17;8.50;99.90
21387;DHT22;10854;45.922;6.716;2022-09-17T05:35:47;8.50;99.90
21387;DHT22;10854;45.922;6.716;2022-09-17T05:38:18;8.50;99.90
21387;DHT22;10854;45.922;6.716;2022-09-17T05:40:47;8.60;99.90
21387;DHT22;10854;45.922;6.716;2022-09-17T05:43:17;8.60;99.90
21387;DHT22;10854;45.922;6.716;2022-09-17T05:45:45;8.70;99.90
21387;DHT22;10854;45.922;6.716;2022-09-17T05:48:14;8.70;99.90
21387;DHT22;10854;45.922;6.716;2022-09-17T05:50:43;8.80;99.90
21387;DHT22;10854;45.922;6.716;2022-09-17T05:53:13;8.90;99.90
21387;DHT22;10854;45.922;6.716;2022-09-17T05:55:41;8.90;99.90
21387;DHT22;10854;45.922;6.716;2022-09-17T05:58:18;9.00;99.90
21387;DHT22;10854;45.922;6.716;2022-09-17T06:00:46;9.10;99.90
21387;DHT22;10854;45.922;6.716;2022-09-17T06:03:19;9.00;99.90
21387;DHT22;10854;45.922;6.716;2022-09-17T06:05:53;9.00;99.90
21387;DHT22;10854;45.922;6.716;2022-09-17T06:08:24;9.00;99.90
21387;DHT22;10854;45.922;6.716;2022-09-17T06:10:53;9.00;99.90
21387;DHT22;10854;45.922;6.716;2022-09-17T06:13:25;9.00;99.90
21387;DHT22;10854;45.922;6.716;2022-09-17T06:15:53;9.00;99.90
21387;DHT22;10854;45.922;6.716;2022-09-17T06:18:23;9.00;99.90
21387;DHT22;10854;45.922;6.716;2022-09-17T06:21:02;8.90;99.90
21387;DHT22;10854;45.922;6.716;2022-09-17T06:23:33;8.90;99.90
21387;DHT22;10854;45.922;6.716;2022-09-17T06:26:06;8.90;99.90
21387;DHT22;10854;45.922;6.716;2022-09-17T06:28:35;8.90;99.90
21387;DHT22;10854;45.922;6.716;2022-09-17T06:31:08;8.90;99.90
21387;DHT22;10854;45.922;6.716;2022-09-17T06:33:39;8.90;99.90
21387;DHT22;10854;45.922;6.716;2022-09-17T06:36:09;8.90;99.90
21387;DHT22;10854;45.922;6.716;2022-09-17T06:38:41;8.90;99.90
21387;DHT22;10854;45.922;6.716;2022-09-17T06:41:13;8.90;99.90
21387;DHT22;10854;45.922;6.716;2022-09-17T06:43:43;8.90;99.90
21387;DHT22;10854;45.922;6.716;2022-09-17T06:46:14;8.90;99.90
21387;DHT22;10854;45.922;6.716;2022-09-17T06:48:46;9.00;99.90
21387;DHT22;10854;45.922;6.716;2022-09-17T06:51:15;9.10;99.90
21387;DHT22;10854;45.922;6.716;2022-09-17T06:53:44;9.10;99.90
21387;DHT22;10854;45.922;6.716;2022-09-17T06:56:12;9.20;99.90
21387;DHT22;10854;45.922;6.716;2022-09-17T06:58:42;9.30;99.90
21387;DHT22;10854;45.922;6.716;2022-09-17T07:01:13;9.40;99.90
21387;DHT22;10854;45.922;6.716;2022-09-17T07:03:43;9.50;99.90
21387;DHT22;10854;45.922;6.716;2022-09-17T07:06:11;9.60;99.90
21387;DHT22;10854;45.922;6.716;2022-09-17T07:08:41;9.60;99.90
21387;DHT22;10854;45.922;6.716;2022-09-17T07:11:24;9.60;99.90
21387;DHT22;10854;45.922;6.716;2022-09-17T07:13:52;9.60;99.90
21387;DHT22;10854;45.922;6.716;2022-09-17T07:16:24;9.70;99.90
21387;DHT22;10854;45.922;6.716;2022-09-17T07:18:55;9.70;99.90
21387;DHT22;10854;45.922;6.716;2022-09-17T07:21:24;9.70;99.90
21387;DHT22;10854;45.922;6.716;2022-09-17T07:23:53;9.60;99.90
21387;DHT22;10854;45.922;6.716;2022-09-17T07:26:22;9.80;99.90
21387;DHT22;10854;45.922;6.716;2022-09-17T07:28:51;10.30;99.90
21387;DHT22;10854;45.922;6.716;2022-09-17T07:31:20;11.30;99.90
21387;DHT22;10854;45.922;6.716;2022-09-17T07:33:50;12.70;99.90
21387;DHT22;10854;45.922;6.716;2022-09-17T07:36:19;13.80;99.90
21387;DHT22;10854;45.922;6.716;2022-09-17T07:38:47;14.90;96.00
21387;DHT22;10854;45.922;6.716;2022-09-17T07:41:17;15.90;91.70
21387;DHT22;10854;45.922;6.716;2022-09-17T07:43:45;16.70;85.20
21387;DHT22;10854;45.922;6.716;2022-09-17T07:46:17;17.40;80.00
21387;DHT22;10854;45.922;6.716;2022-09-17T07:48:46;17.60;75.40
21387;DHT22;10854;45.922;6.716;2022-09-17T07:51:20;17.80;72.50
21387;DHT22;10854;45.922;6.716;2022-09-17T07:53:53;18.00;69.00
21387;DHT22;10854;45.922;6.716;2022-09-17T07:56:22;18.20;68.50
21387;DHT22;10854;45.922;6.716;2022-09-17T07:58:51;18.30;67.30
21387;DHT22;10854;45.922;6.716;2022-09-17T08:01:20;18.30;67.30
21387;DHT22;10854;45.922;6.716;2022-09-17T08:03:51;18.70;68.90
21387;DHT22;10854;45.922;6.716;2022-09-17T08:06:22;19.40;68.50
21387;DHT22;10854;45.922;6.716;2022-09-17T08:08:53;20.10;66.60
21387;DHT22;10854;45.922;6.716;2022-09-17T08:11:25;20.70;63.30
21387;DHT22;10854;45.922;6.716;2022-09-17T08:14:05;21.10;59.90
21387;DHT22;10854;45.922;6.716;2022-09-17T08:16:54;21.40;56.20
21387;DHT22;10854;45.922;6.716;2022-09-17T08:19:33;21.40;55.40
21387;DHT22;10854;45.922;6.716;2022-09-17T08:22:06;21.70;54.90
21387;DHT22;10854;45.922;6.716;2022-09-17T08:24:51;21.90;55.40
21387;DHT22;10854;45.922;6.716;2022-09-17T08:27:41;21.90;54.00
21387;DHT22;10854;45.922;6.716;2022-09-17T08:30:25;21.10;51.30
21387;DHT22;10854;45.922;6.716;2022-09-17T08:33:00;20.10;53.40
21387;DHT22;10854;45.922;6.716;2022-09-17T08:35:58;19.40;54.20
21387;DHT22;10854;45.922;6.716;2022-09-17T08:39:51;19.00;55.10
21387;DHT22;10854;45.922;6.716;2022-09-17T08:43:01;18.90;54.50
21387;DHT22;10854;45.922;6.716;2022-09-17T08:46:08;18.60;55.90
21387;DHT22;10854;45.922;6.716;2022-09-17T08:49:23;18.40;57.60
21387;DHT22;10854;45.922;6.716;2022-09-17T08:53:00;19.10;58.30
21387;DHT22;10854;45.922;6.716;2022-09-17T08:59:37;21.30;55.40
21387;DHT22;10854;45.922;6.716;2022-09-17T09:03:30;22.30;49.30
21387;DHT22;10854;45.922;6.716;2022-09-17T09:06:38;21.60;50.50
21387;DHT22;10854;45.922;6.716;2022-09-17T09:09:42;21.70;49.50
21387;DHT22;10854;45.922;6.716;2022-09-17T09:12:39;22.30;50.10
21387;DHT22;10854;45.922;6.716;2022-09-17T09:41:17;21.50;47.60
21387;DHT22;10854;45.922;6.716;2022-09-17T09:58:35;23.90;42.10
21387;DHT22;10854;45.922;6.716;2022-09-17T11:47:24;24.30;35.40
21387;DHT22;10854;45.922;6.716;2022-09-17T11:51:32;24.40;37.00
21387;DHT22;10854;45.922;6.716;2022-09-17T12:00:40;24.80;35.90
21387;DHT22;10854;45.922;6.716;2022-09-17T12:09:41;25.60;34.60
21387;DHT22;10854;45.922;6.716;2022-09-17T12:17:48;25.00;33.40
21387;DHT22;10854;45.922;6.716;2022-09-17T12:22:22;25.70;35.70
21387;DHT22;10854;45.922;6.716;2022-09-17T13:08:56;27.10;32.30
21387;DHT22;10854;45.922;6.716;2022-09-17T13:18:13;26.20;34.10
21387;DHT22;10854;45.922;6.716;2022-09-17T13:22:42;26.20;32.90
21387;DHT22;10854;45.922;6.716;2022-09-17T13:30:59;25.40;33.10
21387;DHT22;10854;45.922;6.716;2022-09-17T13:34:30;25.10;35.10
21387;DHT22;10854;45.922;6.716;2022-09-17T13:47:39;25.30;35.60
21387;DHT22;10854;45.922;6.716;2022-09-17T13:51:48;25.30;35.10
21387;DHT22;10854;45.922;6.716;2022-09-17T14:54:35;24.40;37.10
21387;DHT22;10854;45.922;6.716;2022-09-17T15:02:55;22.70;35.90
21387;DHT22;10854;45.922;6.716;2022-09-17T15:07:25;21.70;37.80
21387;DHT22;10854;45.922;6.716;2022-09-17T15:11:40;21.10;38.60
21387;DHT22;10854;45.922;6.716;2022-09-17T15:15:36;20.90;39.60
21387;DHT22;10854;45.922;6.716;2022-09-17T15:37:23;20.70;43.30
21387;DHT22;10854;45.922;6.716;2022-09-17T15:51:05;19.00;47.40
21387;DHT22;10854;45.922;6.716;2022-09-17T16:00:11;18.50;49.20
21387;DHT22;10854;45.922;6.716;2022-09-17T16:04:22;18.30;48.80
21387;DHT22;10854;45.922;6.716;2022-09-17T16:17:42;18.30;49.40
21387;DHT22;10854;45.922;6.716;2022-09-17T16:22:06;18.10;49.20
21387;DHT22;10854;45.922;6.716;2022-09-17T16:26:22;18.00;49.50
21387;DHT22;10854;45.922;6.716;2022-09-17T17:58:24;12.80;59.20
21387;DHT22;10854;45.922;6.716;2022-09-17T18:02:41;12.80;59.10
21387;DHT22;10854;45.922;6.716;2022-09-17T18:06:46;12.70;59.30
21387;DHT22;10854;45.922;6.716;2022-09-17T18:10:55;12.80;59.70
21387;DHT22;10854;45.922;6.716;2022-09-17T18:15:06;12.70;60.00
21387;DHT22;10854;45.922;6.716;2022-09-17T18:18:58;12.60;60.30
21387;DHT22;10854;45.922;6.716;2022-09-17T18:41:48;11.90;64.00
21387;DHT22;10854;45.922;6.716;2022-09-17T19:11:55;10.70;67.20
21387;DHT22;10854;45.922;6.716;2022-09-17T19:16:35;10.50;68.00
21387;DHT22;10854;45.922;6.716;2022-09-17T19:20:26;10.30;69.40
21387;DHT22;10854;45.922;6.716;2022-09-17T19:38:16;10.00;71.00
21387;DHT22;10854;45.922;6.716;2022-09-17T19:42:38;9.90;72.30
21387;DHT22;10854;45.922;6.716;2022-09-17T20:01:12;9.50;75.90
21387;DHT22;10854;45.922;6.716;2022-09-17T20:05:30;9.30;78.10
21387;DHT22;10854;45.922;6.716;2022-09-17T20:14:42;9.20;79.00
21387;DHT22;10854;45.922;6.716;2022-09-17T20:18:46;9.10;79.30
21387;DHT22;10854;45.922;6.716;2022-09-17T20:27:17;8.80;80.50
21387;DHT22;10854;45.922;6.716;2022-09-17T20:43:42;8.30;85.40
21387;DHT22;10854;45.922;6.716;2022-09-17T20:47:52;8.30;84.70
21387;DHT22;10854;45.922;6.716;2022-09-17T21:00:12;8.20;87.10
21387;DHT22;10854;45.922;6.716;2022-09-17T21:08:25;8.20;90.30
21387;DHT22;10854;45.922;6.716;2022-09-17T21:12:47;8.10;90.50
21387;DHT22;10854;45.922;6.716;2022-09-17T21:17:21;8.00;90.80
21387;DHT22;10854;45.922;6.716;2022-09-17T21:21:24;7.80;91.10
21387;DHT22;10854;45.922;6.716;2022-09-17T21:34:47;7.50;93.70
21387;DHT22;10854;45.922;6.716;2022-09-17T21:38:49;7.40;95.00
21387;DHT22;10854;45.922;6.716;2022-09-17T21:47:39;7.20;97.10
21387;DHT22;10854;45.922;6.716;2022-09-17T21:52:17;7.20;98.50
21387;DHT22;10854;45.922;6.716;2022-09-17T21:56:55;7.00;99.10
21387;DHT22;10854;45.922;6.716;2022-09-17T22:05:33;6.80;99.90
21387;DHT22;10854;45.922;6.716;2022-09-17T22:12:49;6.70;99.90
21387;DHT22;10854;45.922;6.716;2022-09-17T22:17:17;6.60;99.90
21387;DHT22;10854;45.922;6.716;2022-09-17T22:21:33;6.60;99.90
21387;DHT22;10854;45.922;6.716;2022-09-17T22:25:47;6.60;99.90
21387;DHT22;10854;45.922;6.716;2022-09-17T22:38:56;6.50;99.90
21387;DHT22;10854;45.922;6.716;2022-09-17T22:43:04;6.50;99.90
21387;DHT22;10854;45.922;6.716;2022-09-17T22:47:15;6.40;99.90
21387;DHT22;10854;45.922;6.716;2022-09-17T22:55:59;6.30;99.90
21387;DHT22;10854;45.922;6.716;2022-09-17T23:28:31;7.00;99.90
21387;DHT22;10854;45.922;6.716;2022-09-17T23:33:01;7.00;99.90
21387;DHT22;10854;45.922;6.716;2022-09-17T23:37:36;7.00;99.90
21387;DHT22;10854;45.922;6.716;2022-09-17T23:42:25;7.00;99.90
21387;DHT22;10854;45.922;6.716;2022-09-17T23:55:04;6.40;99.90
21387;DHT22;10854;45.922;6.716;2022-09-17T23:59:16;6.30;99.90
